Home > Products > Valid Products > MTR

000
SAUS46 KLOX 300158
MTR9L2
METAR K9L2 300155Z AUTO 24020G24KT 10SM CLR 32/M02 A2987 RMK AO2 PK
WND 24027/0133 SLP098 T03171017 $





000
SAUS46 KLOX 300149
MTRSDB
METAR KSDB 300148Z AUTO 18013KT 10SM CLR 25/02 A3007 RMK AO2 SLP128
T02500022





000
SAUS46 KLOX 300148
MTRCQT
METAR KCQT 300147Z AUTO VRB03KT 8SM CLR 19/14 A2989 RMK AO2 SLP120
T01940144





000
SAUS46 KLOX 300058
MTR9L2
METAR K9L2 300055Z AUTO 23018KT 10SM CLR 34/M04 A2986 RMK AO2 SLP095
T03391044 $





000
SAUS46 KLOX 300058
MTR9L2
METAR K9L2 300055Z AUTO 23018KT 10SM CLR 34/M04 A2986 RMK AO2 SLP095
T03391044 $





000
SAUS46 KLOX 300049
MTRSDB
METAR KSDB 300048Z AUTO 17014G23KT 10SM CLR 27/01 A3006 RMK AO2
SLP124 T02670006





000
SAUS46 KLOX 300048
MTRCQT
METAR KCQT 300047Z AUTO VRB03KT 8SM CLR 21/14 A2988 RMK AO2 SLP115
T02110139





000
SAUS46 KLOX 292358
MTR9L2
METAR K9L2 292355Z AUTO 25014G19KT 10SM CLR 36/M04 A2986 RMK AO2
SLP094 T03561039 10361 20283 56016 $





000
SAUS46 KLOX 292358
MTR9L2
METAR K9L2 292355Z AUTO 25014G19KT 10SM CLR 36/M04 A2986 RMK AO2
SLP094 T03561039 10361 20283 56016 $





000
SAUS46 KLOX 292349
MTRCQT
METAR KCQT 292347Z AUTO VRB04KT 7SM CLR 23/14 A2988 RMK AO2 SLP115
T02280139 10250 20211 58017





000
SAUS46 KLOX 292349
MTRCQT
METAR KCQT 292347Z AUTO VRB04KT 7SM CLR 23/14 A2988 RMK AO2 SLP115
T02280139 10250 20211 58017





000
SAUS46 KLOX 292349
MTRSDB
METAR KSDB 292348Z AUTO 17015G21KT 10SM CLR 27/00 A3007 RMK AO2
SLP127 T02670000 10317 20267 56004





000
SAUS46 KLOX 292349
MTRSDB
METAR KSDB 292348Z AUTO 17015G21KT 10SM CLR 27/00 A3007 RMK AO2
SLP127 T02670000 10317 20267 56004





000
SAUS46 KLOX 292258
MTR9L2
METAR K9L2 292255Z AUTO 20008KT 10SM CLR 36/M09 A2987 RMK AO2 SLP097
T03561094 $





000
SAUS46 KLOX 292258
MTR9L2
METAR K9L2 292255Z AUTO 20008KT 10SM CLR 36/M09 A2987 RMK AO2 SLP097
T03561094 $





000
SAUS46 KLOX 292249
MTRCQT
METAR KCQT 292247Z AUTO 00000KT 8SM CLR 23/14 A2989 RMK AO2 SLP121
T02280144





000
SAUS46 KLOX 292249
MTRCQT
METAR KCQT 292247Z AUTO 00000KT 8SM CLR 23/14 A2989 RMK AO2 SLP121
T02280144





000
SAUS46 KLOX 292249
MTRSDB
METAR KSDB 292248Z AUTO 17017G24KT 10SM CLR 29/M02 A3007 RMK AO2
SLP125 T02941017





000
SAUS46 KLOX 292158
MTR9L2
METAR K9L2 292155Z AUTO 17008KT 150V240 10SM CLR 34/M07 A2989 RMK
AO2 SLP102 T03391067 $





000
SAUS46 KLOX 292149
MTRSDB
METAR KSDB 292148Z AUTO 19012G23KT 10SM CLR 30/01 A3008 RMK AO2
SLP126 T03000006





000
SAUS46 KLOX 292148
MTRCQT
METAR KCQT 292147Z AUTO VRB04KT 6SM HZ CLR 23/14 A2991 RMK AO2
SLP127 T02280139





000
SAUS46 KLOX 292058
MTR9L2
METAR K9L2 292055Z AUTO 19005KT 10SM CLR 33/M08 A2991 RMK AO2 SLP109
T03331078 58014 $





000
SAUS46 KLOX 292058
MTR9L2
METAR K9L2 292055Z AUTO 19005KT 10SM CLR 33/M08 A2991 RMK AO2 SLP109
T03331078 58014 $





000
SAUS46 KLOX 292049
MTRSDB
METAR KSDB 292048Z AUTO 17012G17KT 10SM CLR 30/03 A3008 RMK AO2
SLP126 T03000033 58006





000
SAUS46 KLOX 292048
MTRCQT
METAR KCQT 292047Z AUTO VRB03KT 6SM HZ CLR 23/14 A2993 RMK AO2
SLP132 T02330144 56006





000
SAUS46 KLOX 291958
MTR9L2
METAR K9L2 291955Z AUTO VRB04KT 10SM CLR 32/M06 A2993 RMK AO2 SLP116
T03171056 $





000
SAUS46 KLOX 291958
MTR9L2
METAR K9L2 291955Z AUTO VRB04KT 10SM CLR 32/M06 A2993 RMK AO2 SLP116
T03171056 $





000
SAUS46 KLOX 291949
MTRCQT
METAR KCQT 291947Z AUTO 28006KT 5SM HZ CLR 24/14 A2993 RMK AO2
SLP133 T02390144





000
SAUS46 KLOX 291949
MTRSDB
METAR KSDB 291948Z AUTO 17013KT 10SM CLR 30/03 A3009 RMK AO2 SLP130
T03000033





000
SAUS46 KLOX 291858
MTR9L2
METAR K9L2 291855Z AUTO 17004KT 10SM CLR 30/M01 A2995 RMK AO2 SLP123
T03001011 $





000
SAUS46 KLOX 291849
MTRSDB
METAR KSDB 291848Z AUTO VRB05KT 10SM CLR 31/M04 A3010 RMK AO2 SLP129
T03111039





000
SAUS46 KLOX 291849
MTRSDB
METAR KSDB 291848Z AUTO VRB05KT 10SM CLR 31/M04 A3010 RMK AO2 SLP129
T03111039





000
SAUS46 KLOX 291848
MTRCQT
METAR KCQT 291847Z AUTO 00000KT 4SM HZ CLR 23/14 A2994 RMK AO2
SLP136 T02330139





000
SAUS46 KLOX 291758
MTR9L2
METAR K9L2 291755Z AUTO VRB03KT 10SM CLR 29/02 A2996 RMK AO2 SLP126
T02890022 10289 20117 58003 $





000
SAUS46 KLOX 291749
MTRSDB
METAR KSDB 291748Z AUTO 10SM CLR 28/M03 A3010 RMK AO2 SLP134
T02781028 10283 20161 51005





000
SAUS46 KLOX 291748
MTRCQT
METAR KCQT 291747Z AUTO 00000KT 4SM HZ CLR 22/14 A2995 RMK AO2
SLP139 T02170139 10217 20156 58004





000
SAUS46 KLOX 291732
MTRCQT
SPECI KCQT 291731Z AUTO 00000KT 4SM HZ FEW017 SCT022 21/14 A2994 RMK
AO2 T02110144





000
SAUS46 KLOX 291658
MTR9L2
METAR K9L2 291655Z AUTO 14004KT 10SM CLR 26/03 A2997 RMK AO2 SLP131
T02560033 $





000
SAUS46 KLOX 291649
MTRSDB
METAR KSDB 291648Z AUTO 36010G15KT 10SM CLR 26/01 A3010 RMK AO2
SLP133 T02560006





000
SAUS46 KLOX 291649
MTRCQT
METAR KCQT 291647Z AUTO 00000KT 3SM HZ OVC016 19/13 A2996 RMK AO2
SLP142 T01940133





000
SAUS46 KLOX 291620
MTRCQT
SPECI KCQT 291619Z AUTO 00000KT 3SM HZ OVC015 18/13 A2996 RMK AO2
T01780133





000
SAUS46 KLOX 291558
MTR9L2
METAR K9L2 291555Z AUTO VRB03KT 10SM CLR 21/01 A2998 RMK AO2 SLP136
T02110006 $





000
SAUS46 KLOX 291549
MTRSDB
METAR KSDB 291548Z AUTO 35013KT 10SM CLR 23/02 A3010 RMK AO2 SLP135
T02330017 $





000
SAUS46 KLOX 291548
MTRCQT
METAR KCQT 291547Z AUTO 00000KT 3SM HZ OVC013 17/13 A2997 RMK AO2
SLP146 T01720133 $





000
SAUS46 KLOX 291500
MTR9L2
METAR K9L2 291455Z AUTO 00000KT 10SM CLR 18/M01 A2997 RMK AO2 SLP132
T01781011 51015 $





000
SAUS46 KLOX 291500
MTR9L2
METAR K9L2 291455Z AUTO 00000KT 10SM CLR 18/M01 A2997 RMK AO2 SLP132
T01781011 51015 $





000
SAUS46 KLOX 291449
MTRSDB
METAR KSDB 291448Z AUTO 34012KT CLR 21/02 A3009 RMK AO2 SLP135
T02110022 53009 $





000
SAUS46 KLOX 291448
MTRCQT
METAR KCQT 291447Z AUTO 00000KT 3SM HZ OVC011 16/13 A2996 RMK AO2
SLP143 T01610128 51007 $





000
SAUS46 KLOX 291420
MTRCQT
SPECI KCQT 291419Z AUTO 00000KT 3SM HZ OVC010 16/13 A2996 RMK AO2
T01610133 $





000
SAUS46 KLOX 291417
MTRCQT
SPECI KCQT 291415Z AUTO 00000KT 2 1/2SM HZ OVC010 16/13 A2996 RMK
AO2 T01560128 $





000
SAUS46 KLOX 291417
MTRCQT
SPECI KCQT 291415Z AUTO 00000KT 2 1/2SM HZ OVC010 16/13 A2996 RMK
AO2 T01560128 $





000
SAUS46 KLOX 291400
MTRCQT
SPECI KCQT 291359Z AUTO 00000KT 3SM HZ OVC010 16/13 A2996 RMK AO2
T01560128 $





000
SAUS46 KLOX 291400
MTR9L2
METAR K9L2 291355Z AUTO 02003KT 10SM CLR 16/M02 A2996 RMK AO2 SLP130
T01561017 TSNO $





000
SAUS46 KLOX 291400
MTR9L2
METAR K9L2 291355Z AUTO 02003KT 10SM CLR 16/M02 A2996 RMK AO2 SLP130
T01561017 TSNO $





000
SAUS46 KLOX 291400
MTRCQT
SPECI KCQT 291359Z AUTO 00000KT 3SM HZ OVC010 16/13 A2996 RMK AO2
T01560128 $





000
SAUS46 KLOX 291349
MTRSDB
METAR KSDB 291348Z AUTO 34014KT 10SM CLR 18/03 A3007 RMK AO2 SLP130
T01830033 $





000
SAUS46 KLOX 291348
MTRCQT
METAR KCQT 291347Z AUTO 00000KT 3SM HZ OVC009 16/13 A2995 RMK AO2
SLP142 T01560128 $





000
SAUS46 KLOX 291348
MTRCQT
METAR KCQT 291347Z AUTO 00000KT 3SM HZ OVC009 16/13 A2995 RMK AO2
SLP142 T01560128 $





000
SAUS46 KLOX 291335
MTRCQT
SPECI KCQT 291334Z AUTO 00000KT 2 1/2SM BR OVC009 16/13 A2995 RMK
AO2 T01560133 $





000
SAUS46 KLOX 291328
MTRCQT
SPECI KCQT 291327Z AUTO 00000KT 3SM HZ OVC009 16/13 A2995 RMK AO2
T01560128 $





000
SAUS46 KLOX 291328
MTRCQT
SPECI KCQT 291327Z AUTO 00000KT 3SM HZ OVC009 16/13 A2995 RMK AO2
T01560128 $





000
SAUS46 KLOX 291300
MTR9L2
METAR K9L2 291255Z AUTO 02004KT 10SM CLR 12/M02 A2993 RMK AO2 SLP121
T01221017 TSNO $





000
SAUS46 KLOX 291249
MTRSDB
METAR KSDB 291248Z AUTO 33020KT 10SM CLR 17/05 A3006 RMK AO2 PK WND
33026/1229 SLP124 T01670050 $





000
SAUS46 KLOX 291249
MTRSDB
METAR KSDB 291248Z AUTO 33020KT 10SM CLR 17/05 A3006 RMK AO2 PK WND
33026/1229 SLP124 T01670050 $





000
SAUS46 KLOX 291248
MTRCQT
METAR KCQT 291247Z AUTO VRB03KT 4SM HZ OVC010 16/13 A2994 RMK AO2
SLP138 T01560128 $





000
SAUS46 KLOX 291248
MTRCQT
METAR KCQT 291247Z AUTO VRB03KT 4SM HZ OVC010 16/13 A2994 RMK AO2
SLP138 T01560128 $





000
SAUS46 KLOX 291200
MTR9L2
METAR K9L2 291155Z AUTO 35004KT 10SM CLR 13/M01 A2992 RMK AO2 SLP115
T01331006 10222 20122 53003 TSNO $





000
SAUS46 KLOX 291151
MTRCQT
SPECI KCQT 291150Z AUTO 00000KT 5SM BR OVC010 16/13 A2994 RMK AO2
T01560133 $





000
SAUS46 KLOX 291149
MTRSDB
METAR KSDB 291148Z AUTO 33018KT 10SM CLR 17/04 A3006 RMK AO2 SLP122
T01670044 10200 20167 56008 $





000
SAUS46 KLOX 291149
MTRSDB
METAR KSDB 291148Z AUTO 33018KT 10SM CLR 17/04 A3006 RMK AO2 SLP122
T01670044 10200 20167 56008 $





000
SAUS46 KLOX 291148
MTRCQT
METAR KCQT 291147Z AUTO 00000KT 5SM BR OVC009 16/13 A2994 RMK AO2
SLP136 T01560133 10156 20144 55005 $





000
SAUS46 KLOX 291100
MTR9L2
METAR K9L2 291055Z AUTO 00000KT 10SM CLR 15/M01 A2991 RMK AO2 SLP112
T01501011 TSNO $





000
SAUS46 KLOX 291049
MTRSDB
METAR KSDB 291048Z AUTO 33019KT 10SM CLR 17/05 A3006 RMK AO2 SLP120
T01720050 $





000
SAUS46 KLOX 291048
MTRCQT
METAR KCQT 291047Z AUTO 00000KT 7SM OVC009 16/13 A2993 RMK AO2
SLP135 T01560133 $





000
SAUS46 KLOX 291000
MTR9L2
METAR K9L2 290955Z AUTO 17005KT 10SM CLR 17/M01 A2991 RMK AO2 SLP111
T01721006 TSNO $





000
SAUS46 KLOX 290955
MTRCQT
SPECI KCQT 290954Z AUTO 00000KT 6SM BR BKN008 BKN015 15/13 A2994 RMK
AO2 T01500133 $





000
SAUS46 KLOX 290949
MTRSDB
METAR KSDB 290948Z AUTO 36008G14KT 10SM CLR 18/03 A3008 RMK AO2
SLP126 T01780033 $





000
SAUS46 KLOX 290948
MTRCQT
METAR KCQT 290947Z AUTO 00000KT 7SM SCT008 BKN015 15/13 A2994 RMK
AO2 SLP137 T01500133 $





000
SAUS46 KLOX 290938
MTRCQT
SPECI KCQT 290937Z AUTO 00000KT 7SM FEW008 SCT015 14/13 A2994 RMK
AO2 T01440133 $





000
SAUS46 KLOX 290900
MTR9L2
METAR K9L2 290855Z AUTO 24007KT 10SM CLR 21/00 A2991 RMK AO2 SLP108
T02060000 58006 TSNO $





000
SAUS46 KLOX 290849
MTRSDB
METAR KSDB 290848Z AUTO 33015KT 10SM CLR 19/M01 A3008 RMK AO2 PK WND
31026/0825 SLP129 T01891011 58007 $





000
SAUS46 KLOX 290848
MTRCQT
METAR KCQT 290847Z AUTO 00000KT 10SM CLR 15/13 A2995 RMK AO2 SLP141
T01500128 55003 $





000
SAUS46 KLOX 290800
MTR9L2
METAR K9L2 290755Z AUTO 23009KT 10SM CLR 21/M01 A2992 RMK AO2 SLP111
T02111006 403500106 $





000
SAUS46 KLOX 290749
MTRSDB
METAR KSDB 290748Z AUTO 33009KT 10SM CLR 19/M02 A3010 RMK AO2 SLP133
T01891022 403000150 $





000
SAUS46 KLOX 290749
MTRSDB
METAR KSDB 290748Z AUTO 33009KT 10SM CLR 19/M02 A3010 RMK AO2 SLP133
T01891022 403000150 $





000
SAUS46 KLOX 290748
MTRCQT
METAR KCQT 290747Z AUTO 00000KT 10SM CLR 15/13 A2995 RMK AO2 SLP141
T01500128 402390139 $





000
SAUS46 KLOX 290700
MTR9L2
METAR K9L2 290655Z AUTO 22006KT 10SM CLR 21/M01 A2993 RMK AO2 SLP117
T02111006 $





000
SAUS46 KLOX 290649
MTRSDB
METAR KSDB 290648Z AUTO 33014KT 10SM CLR 19/M03 A3010 RMK AO2 SLP138
T01941033 $





000
SAUS46 KLOX 290648
MTRCQT
METAR KCQT 290647Z AUTO 00000KT 10SM CLR 16/13 A2995 RMK AO2 SLP141
T01560128 $





000
SAUS46 KLOX 290600
MTR9L2
METAR K9L2 290555Z AUTO 23010KT 10SM CLR 22/01 A2993 RMK AO2 SLP117
T02220011 10344 20222 51015 $





000
SAUS46 KLOX 290600
MTR9L2
METAR K9L2 290555Z AUTO 23010KT 10SM CLR 22/01 A2993 RMK AO2 SLP117
T02220011 10344 20222 51015 $





000
SAUS46 KLOX 290549
MTRSDB
METAR KSDB 290548Z AUTO 33016KT 10SM CLR 20/M04 A3011 RMK AO2 SLP140
T02001044 10283 20189 51007 $





000
SAUS46 KLOX 290548
MTRCQT
METAR KCQT 290547Z AUTO 27003KT 10SM CLR 16/13 A2996 RMK AO2 SLP144
T01560128 10217 20156 51014 $





000
SAUS46 KLOX 290500
MTR9L2
METAR K9L2 290455Z AUTO 21011KT 10SM CLR 23/00 A2993 RMK AO2 SLP118
T02280000 $





000
SAUS46 KLOX 290500
MTR9L2
METAR K9L2 290455Z AUTO 21011KT 10SM CLR 23/00 A2993 RMK AO2 SLP118
T02280000 $





000
SAUS46 KLOX 290449
MTRSDB
METAR KSDB 290448Z AUTO 33018KT 10SM CLR 21/M02 A3011 RMK AO2 PK WND
33027/0420 SLP140 T02061017 $





000
SAUS46 KLOX 290449
MTRSDB
METAR KSDB 290448Z AUTO 33018KT 10SM CLR 21/M02 A3011 RMK AO2 PK WND
33027/0420 SLP140 T02061017 $





000
SAUS46 KLOX 290448
MTRCQT
METAR KCQT 290447Z AUTO 27004KT 10SM SCT009 16/13 A2995 RMK AO2
SLP142 T01610128 $





000
SAUS46 KLOX 290445
MTRCQT
SPECI KCQT 290444Z AUTO 00000KT 10SM SCT009 16/13 A2995 RMK AO2
T01560128 $





000
SAUS46 KLOX 290445
MTRCQT
SPECI KCQT 290444Z AUTO 00000KT 10SM SCT009 16/13 A2995 RMK AO2
T01560128 $





000
SAUS46 KLOX 290426
MTRCQT
SPECI KCQT 290425Z AUTO VRB03KT 10SM BKN009 16/13 A2995 RMK AO2
T01610133 $





000
SAUS46 KLOX 290423
MTRCQT
SPECI KCQT 290422Z AUTO 00000KT 10SM BKN010 16/13 A2994 RMK AO2
T01610133 $





000
SAUS46 KLOX 290359
MTR9L2
METAR K9L2 290355Z AUTO 24012G18KT 10SM CLR 26/03 A2991 RMK AO2
SLP114 T02560028 $





000
SAUS46 KLOX 290359
MTR9L2
METAR K9L2 290355Z AUTO 24012G18KT 10SM CLR 26/03 A2991 RMK AO2
SLP114 T02560028 $





000
SAUS46 KLOX 290349
MTRSDB
METAR KSDB 290348Z AUTO 32013G24KT 10SM CLR 21/M01 A3009 RMK AO2
SLP137 T02061011 $





000
SAUS46 KLOX 290349
MTRSDB
METAR KSDB 290348Z AUTO 32013G24KT 10SM CLR 21/M01 A3009 RMK AO2
SLP137 T02061011 $





000
SAUS46 KLOX 290348
MTRCQT
METAR KCQT 290347Z AUTO 00000KT 10SM CLR 17/13 A2993 RMK AO2 SLP135
T01670128 $





000
SAUS46 KLOX 290259
MTR9L2
METAR K9L2 290255Z AUTO 26018KT 10SM CLR 27/02 A2988 RMK AO2 SLP105
T02720017 53007 $





000
SAUS46 KLOX 290249
MTRSDB
METAR KSDB 290248Z AUTO 31006KT 10SM CLR 21/02 A3008 RMK AO2 SLP136
T02110017 53001 $





000
SAUS46 KLOX 290248
MTRCQT
METAR KCQT 290247Z AUTO VRB03KT 10SM CLR 17/13 A2992 RMK AO2 SLP130
T01720133 53003 $





000
SAUS46 KLOX 290248
MTRCQT
METAR KCQT 290247Z AUTO VRB03KT 10SM CLR 17/13 A2992 RMK AO2 SLP130
T01720133 53003 $





000
SAUS46 KLOX 290159
MTR9L2
METAR K9L2 290155Z AUTO 26016G26KT 10SM CLR 31/01 A2987 RMK AO2 PK
WND 24030/0117 SLP100 T03060011 $





000
SAUS46 KLOX 290149
MTRSDB
METAR KSDB 290148Z AUTO 34010KT 10SM CLR 23/04 A3008 RMK AO2 SLP134
T02330039 $





000
SAUS46 KLOX 290149
MTRCQT
METAR KCQT 290147Z AUTO 26003KT 10SM CLR 19/13 A2991 RMK AO2 SLP127
T01890133 $





000
SAUS46 KLOX 290149
MTRCQT
METAR KCQT 290147Z AUTO 26003KT 10SM CLR 19/13 A2991 RMK AO2 SLP127
T01890133 $





000
SAUS46 KLOX 290059
MTR9L2
METAR K9L2 290055Z AUTO 22021G28KT 10SM CLR 32/01 A2986 RMK AO2 PK
WND 21028/0052 SLP097 T03220006 $





000
SAUS46 KLOX 290049
MTRSDB
METAR KSDB 290048Z AUTO VRB05KT 10SM CLR 26/03 A3008 RMK AO2 SLP133
T02610033 $





000
SAUS46 KLOX 290048
MTRCQT
METAR KCQT 290047Z AUTO VRB03KT 10SM CLR 20/13 A2991 RMK AO2 SLP125
T02000133 $





000
SAUS46 KLOX 282359
MTR9L2
METAR K9L2 282355Z AUTO 22018G22KT 10SM CLR 34/M01 A2986 RMK AO2
SLP096 T03391011 10350 20272 56017 $





000
SAUS46 KLOX 282359
MTR9L2
METAR K9L2 282355Z AUTO 22018G22KT 10SM CLR 34/M01 A2986 RMK AO2
SLP096 T03391011 10350 20272 56017 $





000
SAUS46 KLOX 282349
MTRSDB
METAR KSDB 282348Z AUTO VRB04KT 10SM CLR 28/01 A3008 RMK AO2 SLP131
T02780006 10300 20239 56005 $





000
SAUS46 KLOX 282349
MTRSDB
METAR KSDB 282348Z AUTO VRB04KT 10SM CLR 28/01 A3008 RMK AO2 SLP131
T02780006 10300 20239 56005 $





000
SAUS46 KLOX 282349
MTRCQT
METAR KCQT 282347Z AUTO 00000KT 10SM CLR 21/13 A2991 RMK AO2 SLP127
T02110133 10239 20194 58013 $





000
SAUS46 KLOX 282349
MTRCQT
METAR KCQT 282347Z AUTO 00000KT 10SM CLR 21/13 A2991 RMK AO2 SLP127
T02110133 10239 20194 58013 $





000
SAUS46 KLOX 282300
MTR9L2
METAR K9L2 282255Z AUTO VRB06KT 10SM CLR 34/M04 A2987 RMK AO2 SLP099
T03391044 $





000
SAUS46 KLOX 282300
MTR9L2
METAR K9L2 282255Z AUTO VRB06KT 10SM CLR 34/M04 A2987 RMK AO2 SLP099
T03391044 $





000
SAUS46 KLOX 282249
MTRCQT
METAR KCQT 282247Z AUTO 00000KT 10SM CLR 21/13 A2992 RMK AO2 SLP131
T02110133 $





000
SAUS46 KLOX 282249
MTRCQT
METAR KCQT 282247Z AUTO 00000KT 10SM CLR 21/13 A2992 RMK AO2 SLP131
T02110133 $





000
SAUS46 KLOX 282249
MTRSDB
METAR KSDB 282248Z AUTO 15008KT 110V190 10SM CLR 29/01 A3009 RMK AO2
SLP132 T02940006 $





000
SAUS46 KLOX 282159
MTR9L2
METAR K9L2 282155Z AUTO VRB06G15KT 10SM CLR 33/M05 A2989 RMK AO2
SLP104 T03331050 $





000
SAUS46 KLOX 282159
MTR9L2
METAR K9L2 282155Z AUTO VRB06G15KT 10SM CLR 33/M05 A2989 RMK AO2
SLP104 T03331050 $





000
SAUS46 KLOX 282149
MTRSDB
METAR KSDB 282148Z AUTO 18007KT 10SM CLR 28/03 A3009 RMK AO2 SLP134
T02830033 $





000
SAUS46 KLOX 282148
MTRCQT
METAR KCQT 282147Z AUTO VRB03KT 10SM CLR 21/13 A2994 RMK AO2 SLP138
T02110133 $





000
SAUS46 KLOX 282059
MTR9L2
METAR K9L2 282055Z AUTO 20008KT 10SM CLR 33/M07 A2992 RMK AO2 SLP111
T03281072 58018 $





000
SAUS46 KLOX 282049
MTRSDB
METAR KSDB 282048Z AUTO VRB04KT 10SM CLR 28/01 A3010 RMK AO2 SLP136
T02780011 58006 $





000
SAUS46 KLOX 282048
MTRCQT
METAR KCQT 282047Z AUTO VRB03KT 9SM CLR 23/13 A2995 RMK AO2 SLP140
T02330133 58017 $





000
SAUS46 KLOX 282048
MTRCQT
METAR KCQT 282047Z AUTO VRB03KT 9SM CLR 23/13 A2995 RMK AO2 SLP140
T02330133 58017 $





000
SAUS46 KLOX 281959
MTR9L2
METAR K9L2 281955Z AUTO 13006KT 10SM CLR 32/M03 A2994 RMK AO2 SLP120
T03171028 $





000
SAUS46 KLOX 281949
MTRSDB
METAR KSDB 281948Z AUTO 32009KT 10SM CLR 27/01 A3011 RMK AO2 SLP140
T02720011 $





000
SAUS46 KLOX 281948
MTRCQT
METAR KCQT 281947Z AUTO VRB03KT 8SM CLR 22/13 A2997 RMK AO2 SLP147
T02220133 $





000
SAUS46 KLOX 281900
MTR9L2
METAR K9L2 281855Z AUTO 11005KT 10SM CLR 29/02 A2996 RMK AO2 SLP127
T02940017 $





000
SAUS46 KLOX 281849
MTRSDB
METAR KSDB 281848Z AUTO 33012G16KT 10SM CLR 25/01 A3012 RMK AO2
SLP144 T02500006 $





000
SAUS46 KLOX 281849
MTRSDB
METAR KSDB 281848Z AUTO 33012G16KT 10SM CLR 25/01 A3012 RMK AO2
SLP144 T02500006 $





000
SAUS46 KLOX 281848
MTRCQT
METAR KCQT 281847Z AUTO 10004KT 5SM HZ CLR 22/13 A2999 RMK AO2
SLP154 T02170128 $





000
SAUS46 KLOX 281809
MTRCQT
SPECI KCQT 281807Z AUTO VRB03KT 4SM HZ SCT019 SCT024 20/13 A3000 RMK
AO2 T02000133 $





000
SAUS46 KLOX 281809
MTRCQT
SPECI KCQT 281807Z AUTO VRB03KT 4SM HZ SCT019 SCT024 20/13 A3000 RMK
AO2 T02000133 $





000
SAUS46 KLOX 281759
MTR9L2
METAR K9L2 281755Z AUTO 00000KT 10SM CLR 27/03 A2997 RMK AO2 SLP131
T02720028 10272 20106 58002 $





000
SAUS46 KLOX 281749
MTRSDB
METAR KSDB 281748Z AUTO 34012G19KT 10SM CLR 23/M01 A3012 RMK AO2
SLP147 T02331006 10239 20150 53009 $





000
SAUS46 KLOX 281749
MTRCQT
METAR KCQT 281747Z AUTO 00000KT 4SM HZ OVC018 19/13 A3000 RMK AO2
SLP157 T01940128 10194 20144 51001 $





000
SAUS46 KLOX 281659
MTR9L2
METAR K9L2 281655Z AUTO 15004KT 10SM CLR 25/03 A2997 RMK AO2 SLP134
T02500033 TSNO $





000
SAUS46 KLOX 281649
MTRSDB
METAR KSDB 281648Z AUTO 36008G14KT 10SM CLR 22/01 A3010 RMK AO2
SLP143 T02220006 $





000
SAUS46 KLOX 281649
MTRCQT
METAR KCQT 281647Z AUTO 00000KT 4SM HZ OVC015 17/13 A3000 RMK AO2
SLP157 T01720128 $





000
SAUS46 KLOX 281623
MTRCQT
SPECI KCQT 281622Z AUTO 00000KT 4SM HZ OVC015 17/13 A3000 RMK AO2
T01670128 $





000
SAUS46 KLOX 281600
MTR9L2
METAR K9L2 281555Z AUTO 12004KT 10SM CLR 21/04 A2998 RMK AO2 SLP138
T02060039 $





000
SAUS46 KLOX 281550
MTRCQT
METAR KCQT 281547Z AUTO 00000KT 5SM HZ OVC013 17/13 A3000 RMK AO2
SLP157 T01670128 $





000
SAUS46 KLOX 281549
MTRSDB
METAR KSDB 281548Z AUTO 34014KT 10SM CLR 20/02 A3010 RMK AO2 SLP145
T02000017 $





000
SAUS46 KLOX 281500
MTR9L2
METAR K9L2 281455Z AUTO 10003KT 10SM CLR 17/03 A2998 RMK AO2 SLP138
T01670033 51015 TSNO $





000
SAUS46 KLOX 281449
MTRSDB
METAR KSDB 281448Z AUTO 35013KT CLR 19/01 A3009 RMK AO2 PK WND
35027/1400 SLP141 T01890006 53012 $





000
SAUS46 KLOX 281448
MTRCQT
METAR KCQT 281447Z AUTO VRB03KT 5SM HZ OVC012 16/12 A3000 RMK AO2
SLP156 T01560122 53013 $





000
SAUS46 KLOX 281448
MTRCQT
METAR KCQT 281447Z AUTO VRB03KT 5SM HZ OVC012 16/12 A3000 RMK AO2
SLP156 T01560122 53013 $





000
SAUS46 KLOX 281359
MTR9L2
METAR K9L2 281355Z AUTO 00000KT 10SM CLR 14/03 A2996 RMK AO2 SLP134
T01440033 TSNO $





000
SAUS46 KLOX 281359
MTR9L2
METAR K9L2 281355Z AUTO 00000KT 10SM CLR 14/03 A2996 RMK AO2 SLP134
T01440033 TSNO $





000
SAUS46 KLOX 281349
MTRSDB
METAR KSDB 281348Z AUTO 35017G25KT 10SM CLR 17/02 A3007 RMK AO2 PK
WND 34027/1326 SLP134 T01720022 $





000
SAUS46 KLOX 281348
MTRCQT
METAR KCQT 281347Z AUTO 00000KT 5SM BR OVC010 15/13 A2998 RMK AO2
SLP151 T01500128 $





000
SAUS46 KLOX 281348
MTRCQT
METAR KCQT 281347Z AUTO 00000KT 5SM BR OVC010 15/13 A2998 RMK AO2
SLP151 T01500128 $





000
SAUS46 KLOX 281320
MTRCQT
SPECI KCQT 281318Z AUTO 00000KT 4SM HZ OVC010 15/12 A2998 RMK AO2
T01500122 $





000
SAUS46 KLOX 281320
MTRCQT
SPECI KCQT 281318Z AUTO 00000KT 4SM HZ OVC010 15/12 A2998 RMK AO2
T01500122 $





000
SAUS46 KLOX 281259
MTR9L2
METAR K9L2 281255Z AUTO 30003KT 10SM CLR 11/02 A2995 RMK AO2 SLP128
T01060017 TSNO $





000
SAUS46 KLOX 281249
MTRSDB
METAR KSDB 281248Z AUTO 35021KT 10SM CLR 16/03 A3006 RMK AO2 PK WND
35030/1234 SLP128 T01560033 $





000
SAUS46 KLOX 281249
MTRSDB
METAR KSDB 281248Z AUTO 35021KT 10SM CLR 16/03 A3006 RMK AO2 PK WND
35030/1234 SLP128 T01560033 $





000
SAUS46 KLOX 281248
MTRCQT
METAR KCQT 281247Z AUTO 00000KT 8SM OVC009 15/12 A2997 RMK AO2
SLP146 T01500122 $





000
SAUS46 KLOX 281248
MTRCQT
METAR KCQT 281247Z AUTO 00000KT 8SM OVC009 15/12 A2997 RMK AO2
SLP146 T01500122 $





000
SAUS46 KLOX 281159
MTR9L2
METAR K9L2 281155Z AUTO 07003KT 10SM CLR 12/03 A2993 RMK AO2 SLP121
T01170028 10217 20117 53002 TSNO $





000
SAUS46 KLOX 281149
MTRSDB
METAR KSDB 281148Z AUTO 35016G30KT 10SM CLR 16/04 A3005 RMK AO2 PK
WND 34030/1141 SLP122 T01560039 10178 20150 56009 $





000
SAUS46 KLOX 281149
MTRSDB
METAR KSDB 281148Z AUTO 35016G30KT 10SM CLR 16/04 A3005 RMK AO2 PK
WND 34030/1141 SLP122 T01560039 10178 20150 56009 $





000
SAUS46 KLOX 281148
MTRCQT
METAR KCQT 281147Z AUTO 27003KT 10SM OVC008 14/12 A2996 RMK AO2
SLP144 T01440122 10150 20139 55001 $





000
SAUS46 KLOX 281148
MTRCQT
METAR KCQT 281147Z AUTO 27003KT 10SM OVC008 14/12 A2996 RMK AO2
SLP144 T01440122 10150 20139 55001 $





000
SAUS46 KLOX 281100
MTR9L2
METAR K9L2 281055Z AUTO 32003KT 10SM CLR 12/03 A2992 RMK AO2 SLP117
T01220028 TSNO $





000
SAUS46 KLOX 281049
MTRSDB
METAR KSDB 281048Z AUTO 34019G26KT 10SM CLR 15/04 A3005 RMK AO2 PK
WND 34030/1011 SLP126 T01500044 $





000
SAUS46 KLOX 281049
MTRSDB
METAR KSDB 281048Z AUTO 34019G26KT 10SM CLR 15/04 A3005 RMK AO2 PK
WND 34030/1011 SLP126 T01500044 $





000
SAUS46 KLOX 281048
MTRCQT
METAR KCQT 281047Z AUTO 00000KT 10SM OVC008 14/12 A2995 RMK AO2
SLP141 T01440122 $





000
SAUS46 KLOX 281048
MTRCQT
METAR KCQT 281047Z AUTO 00000KT 10SM OVC008 14/12 A2995 RMK AO2
SLP141 T01440122 $





000
SAUS46 KLOX 281032
MTRCQT
SPECI KCQT 281031Z AUTO 00000KT 10SM BKN008 14/12 A2996 RMK AO2
T01390122 $





000
SAUS46 KLOX 281032
MTRCQT
SPECI KCQT 281031Z AUTO 00000KT 10SM BKN008 14/12 A2996 RMK AO2
T01390122 $





000
SAUS46 KLOX 281023
MTRCQT
SPECI KCQT 281022Z AUTO 00000KT 10SM FEW008 14/12 A2996 RMK AO2
T01390122 $





000
SAUS46 KLOX 280959
MTR9L2
METAR K9L2 280955Z AUTO 00000KT 10SM CLR 16/04 A2991 RMK AO2 SLP113
T01610044 TSNO $





000
SAUS46 KLOX 280949
MTRSDB
METAR KSDB 280948Z AUTO 35016G25KT 10SM CLR 16/04 A3006 RMK AO2 PK
WND 35029/0915 SLP125 T01610039 $





000
SAUS46 KLOX 280949
MTRSDB
METAR KSDB 280948Z AUTO 35016G25KT 10SM CLR 16/04 A3006 RMK AO2 PK
WND 35029/0915 SLP125 T01610039 $





000
SAUS46 KLOX 280948
MTRCQT
METAR KCQT 280947Z AUTO 00000KT 7SM CLR 14/12 A2996 RMK AO2 SLP143
T01440122 $





000
SAUS46 KLOX 280859
MTR9L2
METAR K9L2 280855Z AUTO 17006KT 10SM CLR 18/04 A2992 RMK AO2 SLP116
T01780044 58007 $





000
SAUS46 KLOX 280859
MTR9L2
METAR K9L2 280855Z AUTO 17006KT 10SM CLR 18/04 A2992 RMK AO2 SLP116
T01780044 58007 $





000
SAUS46 KLOX 280849
MTRSDB
METAR KSDB 280848Z AUTO 35012G20KT 10SM CLR 16/06 A3008 RMK AO2
SLP132 T01610056 56005 $





000
SAUS46 KLOX 280848
MTRCQT
METAR KCQT 280847Z AUTO 00000KT 10SM CLR 14/12 A2996 RMK AO2 SLP145
T01440122 58008 $





000
SAUS46 KLOX 280759
MTR9L2
METAR K9L2 280755Z AUTO 21008KT 10SM CLR 18/05 A2993 RMK AO2 SLP119
T01830050 403220117 TSNO $





000
SAUS46 KLOX 280749
MTRSDB
METAR KSDB 280748Z AUTO 36013G26KT 10SM CLR 17/06 A3008 RMK AO2 PK
WND 36027/0653 SLP133 T01720061 402670128 $





000
SAUS46 KLOX 280748
MTRCQT
METAR KCQT 280747Z AUTO 00000KT 10SM CLR 14/12 A2998 RMK AO2 SLP151
T01440117 402220144 $





000
SAUS46 KLOX 280659
MTR9L2
METAR K9L2 280655Z AUTO 19008KT 10SM CLR 19/05 A2994 RMK AO2 SLP123
T01940050 TSNO $





000
SAUS46 KLOX 280649
MTRSDB
METAR KSDB 280648Z AUTO 35016G23KT 10SM CLR 18/04 A3009 RMK AO2 PK
WND 32028/0559 SLP137 T01780044 $





000
SAUS46 KLOX 280649
MTRSDB
METAR KSDB 280648Z AUTO 35016G23KT 10SM CLR 18/04 A3009 RMK AO2 PK
WND 32028/0559 SLP137 T01780044 $





000
SAUS46 KLOX 280648
MTRCQT
METAR KCQT 280647Z AUTO 00000KT 10SM CLR 15/12 A2999 RMK AO2 SLP155
T01500117 $





000
SAUS46 KLOX 280648
MTRCQT
METAR KCQT 280647Z AUTO 00000KT 10SM CLR 15/12 A2999 RMK AO2 SLP155
T01500117 $





000
SAUS46 KLOX 280559
MTR9L2
METAR K9L2 280555Z AUTO 24009KT 10SM CLR 22/06 A2995 RMK AO2 SLP126
T02170056 10317 20206 51017 $





000
SAUS46 KLOX 280559
MTR9L2
METAR K9L2 280555Z AUTO 24009KT 10SM CLR 22/06 A2995 RMK AO2 SLP126
T02170056 10317 20206 51017 $





000
SAUS46 KLOX 280549
MTRSDB
METAR KSDB 280548Z AUTO 34013G25KT 10SM CLR 17/05 A3010 RMK AO2
SLP141 T01720050 10250 20172 51005 $





000
SAUS46 KLOX 280549
MTRSDB
METAR KSDB 280548Z AUTO 34013G25KT 10SM CLR 17/05 A3010 RMK AO2
SLP141 T01720050 10250 20172 51005 $





000
SAUS46 KLOX 280548
MTRCQT
METAR KCQT 280547Z AUTO 26003KT 10SM CLR 15/12 A2999 RMK AO2 SLP153
T01500117 10200 20150 53007 $





000
SAUS46 KLOX 280548
MTRCQT
METAR KCQT 280547Z AUTO 26003KT 10SM CLR 15/12 A2999 RMK AO2 SLP153
T01500117 10200 20150 53007 $





000
SAUS46 KLOX 280459
MTR9L2
METAR K9L2 280455Z AUTO 20012KT 10SM CLR 21/06 A2993 RMK AO2 SLP123
T02110056 $





000
SAUS46 KLOX 280459
MTR9L2
METAR K9L2 280455Z AUTO 20012KT 10SM CLR 21/06 A2993 RMK AO2 SLP123
T02110056 $





000
SAUS46 KLOX 280449
MTRSDB
METAR KSDB 280448Z AUTO 33015KT 10SM CLR 18/06 A3009 RMK AO2 PK WND
33026/0402 SLP141 T01780056 $





000
SAUS46 KLOX 280448
MTRCQT
METAR KCQT 280447Z AUTO 00000KT 10SM CLR 16/12 A2998 RMK AO2 SLP149
T01560117 $





000
SAUS46 KLOX 280448
MTRCQT
METAR KCQT 280447Z AUTO 00000KT 10SM CLR 16/12 A2998 RMK AO2 SLP149
T01560117 $





000
SAUS46 KLOX 280359
MTR9L2
METAR K9L2 280355Z AUTO 26012KT 10SM CLR 23/06 A2992 RMK AO2 SLP117
T02330061 $





000
SAUS46 KLOX 280349
MTRSDB
METAR KSDB 280348Z AUTO 32016KT 10SM CLR 18/06 A3009 RMK AO2 SLP141
T01780056 $





000
SAUS46 KLOX 280348
MTRCQT
METAR KCQT 280347Z AUTO 28004KT 10SM CLR 16/12 A2997 RMK AO2 SLP149
T01610122 $





000
SAUS46 KLOX 280259
MTR9L2
METAR K9L2 280255Z AUTO 27016KT 10SM CLR 25/06 A2989 RMK AO2 SLP109
T02500061 53010 $





000
SAUS46 KLOX 280259
MTR9L2
METAR K9L2 280255Z AUTO 27016KT 10SM CLR 25/06 A2989 RMK AO2 SLP109
T02500061 53010 $





000
SAUS46 KLOX 280249
MTRSDB
METAR KSDB 280248Z AUTO 33011KT 10SM CLR 18/06 A3008 RMK AO2 SLP140
T01830056 53006 $





000
SAUS46 KLOX 280248
MTRCQT
METAR KCQT 280247Z AUTO 27006KT 10SM CLR 17/12 A2997 RMK AO2 SLP146
T01670122 53006 $





000
SAUS46 KLOX 280248
MTRCQT
METAR KCQT 280247Z AUTO 27006KT 10SM CLR 17/12 A2997 RMK AO2 SLP146
T01670122 53006 $





000
SAUS46 KLOX 280159
MTR9L2
METAR K9L2 280155Z AUTO 24018G26KT 10SM CLR 28/04 A2987 RMK AO2 PK
WND 24028/0104 SLP100 T02780039 TSNO $





000
SAUS46 KLOX 280149
MTRSDB
METAR KSDB 280148Z AUTO VRB03KT 10SM CLR 21/06 A3007 RMK AO2 SLP134
T02110056 $





000
SAUS46 KLOX 280148
MTRCQT
METAR KCQT 280147Z AUTO VRB03KT 10SM CLR 19/12 A2995 RMK AO2 SLP141
T01890122 $





000
SAUS46 KLOX 280148
MTRCQT
METAR KCQT 280147Z AUTO VRB03KT 10SM CLR 19/12 A2995 RMK AO2 SLP141
T01890122 $





000
SAUS46 KLOX 280059
MTR9L2
METAR K9L2 280055Z AUTO 24020G26KT 10SM CLR 30/02 A2986 RMK AO2 PK
WND 23028/0044 SLP097 T03000017 $





000
SAUS46 KLOX 280059
MTR9L2
METAR K9L2 280055Z AUTO 24020G26KT 10SM CLR 30/02 A2986 RMK AO2 PK
WND 23028/0044 SLP097 T03000017 $





000
SAUS46 KLOX 280049
MTRSDB
METAR KSDB 280048Z AUTO VRB05KT 10SM CLR 23/06 A3006 RMK AO2 SLP131
T02330056 $





000
SAUS46 KLOX 280049
MTRSDB
METAR KSDB 280048Z AUTO VRB05KT 10SM CLR 23/06 A3006 RMK AO2 SLP131
T02330056 $





000
SAUS46 KLOX 280048
MTRCQT
METAR KCQT 280047Z AUTO 28006KT 10SM CLR 19/13 A2995 RMK AO2 SLP139
T01940128





000
SAUS46 KLOX 272359
MTR9L2
METAR K9L2 272355Z AUTO 23013G21KT 10SM CLR 32/02 A2986 RMK AO2
SLP095 T03170022 10322 20222 56015 $





000
SAUS46 KLOX 272359
MTR9L2
METAR K9L2 272355Z AUTO 23013G21KT 10SM CLR 32/02 A2986 RMK AO2
SLP095 T03170022 10322 20222 56015 $





000
SAUS46 KLOX 272349
MTRSDB
METAR KSDB 272348Z AUTO 18009KT 10SM CLR 25/06 A3006 RMK AO2 SLP128
T02500061 10267 20217 56004 $





000
SAUS46 KLOX 272349
MTRCQT
METAR KCQT 272347Z AUTO 27007KT 10SM CLR 20/13 A2995 RMK AO2 SLP140
T02000128 10222 20178 56006





000
SAUS46 KLOX 272349
MTRCQT
METAR KCQT 272347Z AUTO 27007KT 10SM CLR 20/13 A2995 RMK AO2 SLP140
T02000128 10222 20178 56006





000
SAUS46 KLOX 272259
MTR9L2
METAR K9L2 272255Z AUTO 23008KT 10SM CLR 32/M04 A2987 RMK AO2 SLP097
T03171044 TSNO $





000
SAUS46 KLOX 272259
MTR9L2
METAR K9L2 272255Z AUTO 23008KT 10SM CLR 32/M04 A2987 RMK AO2 SLP097
T03171044 TSNO $





000
SAUS46 KLOX 272254
MTRSDB
METAR KSDB 272248Z AUTO 21010KT 170V240 10SM CLR 25/07 A3006 RMK AO2
SLP129 T02500072 $





000
SAUS46 KLOX 272249
MTRCQT
METAR KCQT 272247Z AUTO VRB03KT 10SM CLR 21/12 A2995 RMK AO2 SLP141
T02060122





000
SAUS46 KLOX 272249
MTRCQT
METAR KCQT 272247Z AUTO VRB03KT 10SM CLR 21/12 A2995 RMK AO2 SLP141
T02060122





000
SAUS46 KLOX 272159
MTR9L2
METAR K9L2 272155Z AUTO VRB03KT 10SM CLR 31/M01 A2988 RMK AO2 SLP102
T03111006 TSNO $





000
SAUS46 KLOX 272149
MTRSDB
METAR KSDB 272148Z AUTO VRB04KT 10SM CLR 27/08 A3006 RMK AO2 SLP130
T02670078 $





000
SAUS46 KLOX 272148
MTRCQT
METAR KCQT 272147Z AUTO 10SM CLR 22/12 A2996 RMK AO2 SLP143
T02170122





000
SAUS46 KLOX 272059
MTR9L2
METAR K9L2 272055Z AUTO 22007KT 170V300 10SM CLR 30/02 A2990 RMK AO2
SLP110 T03000017 58014 TSNO $





000
SAUS46 KLOX 272049
MTRSDB
METAR KSDB 272048Z AUTO VRB04G23KT 10SM CLR 26/08 A3007 RMK AO2
SLP130 T02610078 50000 $





000
SAUS46 KLOX 272048
MTRCQT
METAR KCQT 272047Z AUTO VRB03KT 10SM CLR 21/13 A2997 RMK AO2 SLP147
T02110128 58009





000
SAUS46 KLOX 271959
MTR9L2
METAR K9L2 271955Z AUTO 17006KT 10SM CLR 28/01 A2992 RMK AO2 SLP116
T02830011 TSNO $





000
SAUS46 KLOX 271949
MTRCQT
METAR KCQT 271947Z AUTO VRB03KT 10SM CLR 22/13 A2998 RMK AO2 SLP151
T02170128





000
SAUS46 KLOX 271949
MTRSDB
METAR KSDB 271948Z AUTO VRB06KT 10SM CLR 24/05 A3007 RMK AO2 SLP133
T02440050 $





000
SAUS46 KLOX 271916
MTRCQT
SPECI KCQT 271915Z AUTO 00000KT 10SM SCT027 21/12 A2998 RMK AO2
T02110122





000
SAUS46 KLOX 271857
MTR9L2
METAR K9L2 271855Z AUTO 15005KT 10SM CLR 27/05 A2994 RMK AO2 SLP123
T02670050 TSNO $





000
SAUS46 KLOX 271849
MTRCQT
METAR KCQT 271847Z AUTO 00000KT 9SM OVC025 21/12 A2999 RMK AO2
SLP155 T02060122





000
SAUS46 KLOX 271849
MTRSDB
METAR KSDB 271848Z AUTO 10SM CLR 23/04 A3008 RMK AO2 SLP135
T02280044





000
SAUS46 KLOX 271757
MTR9L2
METAR K9L2 271755Z AUTO 00000KT 10SM CLR 22/06 A2995 RMK AO2 SLP128
T02220061 10239 20117 58002 TSNO $





000
SAUS46 KLOX 271749
MTRSDB
METAR KSDB 271748Z AUTO 33013KT 10SM CLR 22/06 A3007 RMK AO2 SLP134
T02170061 10217 20128 51005





000
SAUS46 KLOX 271748
MTRCQT
METAR KCQT 271747Z AUTO 00000KT 8SM OVC019 18/12 A3000 RMK AO2
SLP156 T01780122 10178 20150 51001





000
SAUS46 KLOX 271748
MTRCQT
METAR KCQT 271747Z AUTO 00000KT 8SM OVC019 18/12 A3000 RMK AO2
SLP156 T01780122 10178 20150 51001





000
SAUS46 KLOX 271658
MTR9L2
METAR K9L2 271655Z AUTO VRB04KT 10SM CLR 22/07 A2995 RMK AO2 SLP128
T02220072 TSNO $





000
SAUS46 KLOX 271649
MTRSDB
METAR KSDB 271648Z AUTO 35013KT 10SM CLR 21/07 A3007 RMK AO2 SLP133
T02060067





000
SAUS46 KLOX 271648
MTRCQT
METAR KCQT 271647Z AUTO 00000KT 6SM HZ OVC019 17/12 A3000 RMK AO2
SLP156 T01720122





000
SAUS46 KLOX 271557
MTR9L2
METAR K9L2 271555Z AUTO 00000KT 10SM CLR 19/07 A2996 RMK AO2 SLP133
T01940072 TSNO $





000
SAUS46 KLOX 271549
MTRSDB
METAR KSDB 271548Z AUTO 35014G22KT 10SM CLR 18/08 A3006 RMK AO2
SLP137 T01830078





000
SAUS46 KLOX 271549
MTRSDB
METAR KSDB 271548Z AUTO 35014G22KT 10SM CLR 18/08 A3006 RMK AO2
SLP137 T01830078





000
SAUS46 KLOX 271548
MTRCQT
METAR KCQT 271547Z AUTO 00000KT 5SM HZ OVC018 17/12 A3000 RMK AO2
SLP158 T01670122





000
SAUS46 KLOX 271458
MTR9L2
METAR K9L2 271455Z AUTO 00000KT 10SM CLR 17/07 A2995 RMK AO2 SLP132
T01670072 53011 TSNO $





000
SAUS46 KLOX 271458
MTR9L2
METAR K9L2 271455Z AUTO 00000KT 10SM CLR 17/07 A2995 RMK AO2 SLP132
T01670072 53011 TSNO $





000
SAUS46 KLOX 271449
MTRSDB
METAR KSDB 271448Z AUTO 35013KT 10SM CLR 17/08 A3005 RMK AO2 SLP135
T01670078 53007





000
SAUS46 KLOX 271448
MTRCQT
METAR KCQT 271447Z AUTO 00000KT 5SM HZ OVC018 16/12 A2999 RMK AO2
SLP155 T01610122 53008





000
SAUS46 KLOX 271358
MTR9L2
METAR K9L2 271355Z AUTO 17005KT 10SM CLR 14/06 A2994 RMK AO2 SLP126
T01390061 TSNO $





000
SAUS46 KLOX 271358
MTR9L2
METAR K9L2 271355Z AUTO 17005KT 10SM CLR 14/06 A2994 RMK AO2 SLP126
T01390061 TSNO $





000
SAUS46 KLOX 271349
MTRSDB
METAR KSDB 271348Z AUTO 35015G21KT 10SM CLR 15/08 A3003 RMK AO2
SLP126 T01500078





000
SAUS46 KLOX 271348
MTRCQT
METAR KCQT 271347Z AUTO 00000KT 6SM HZ OVC017 16/12 A2998 RMK AO2
SLP151 T01560122





000
SAUS46 KLOX 271258
MTR9L2
METAR K9L2 271255Z AUTO 16005KT 10SM CLR 13/05 A2993 RMK AO2 SLP125
T01330050 TSNO $





000
SAUS46 KLOX 271258
MTR9L2
METAR K9L2 271255Z AUTO 16005KT 10SM CLR 13/05 A2993 RMK AO2 SLP125
T01330050 TSNO $





000
SAUS46 KLOX 271249
MTRSDB
METAR KSDB 271248Z AUTO 35014KT 10SM CLR 13/07 A3003 RMK AO2 SLP126
T01330072





000
SAUS46 KLOX 271248
MTRCQT
METAR KCQT 271247Z AUTO 00000KT 8SM OVC016 16/12 A2997 RMK AO2
SLP148 T01560122





000
SAUS46 KLOX 271158
MTR9L2
METAR K9L2 271155Z AUTO 21004KT 10SM CLR 13/04 A2992 RMK AO2 SLP118
T01280044 10183 20122 53001 $





000
SAUS46 KLOX 271158
MTR9L2
METAR K9L2 271155Z AUTO 21004KT 10SM CLR 13/04 A2992 RMK AO2 SLP118
T01280044 10183 20122 53001 $





000
SAUS46 KLOX 271149
MTRSDB
METAR KSDB 271148Z AUTO 33014KT 10SM CLR 13/07 A3003 RMK AO2 SLP124
T01330072 10161 20133 55003





000
SAUS46 KLOX 271149
MTRSDB
METAR KSDB 271148Z AUTO 33014KT 10SM CLR 13/07 A3003 RMK AO2 SLP124
T01330072 10161 20133 55003





000
SAUS46 KLOX 271148
MTRCQT
METAR KCQT 271147Z AUTO 00000KT 10SM OVC015 15/12 A2997 RMK AO2
SLP147 T01500122 10156 20150 58007





000
SAUS46 KLOX 271148
MTRCQT
METAR KCQT 271147Z AUTO 00000KT 10SM OVC015 15/12 A2997 RMK AO2
SLP147 T01500122 10156 20150 58007





000
SAUS46 KLOX 271057
MTR9L2
METAR K9L2 271055Z AUTO 00000KT 10SM CLR 14/06 A2991 RMK AO2 SLP115
T01440056 TSNO $





000
SAUS46 KLOX 271049
MTRSDB
METAR KSDB 271048Z AUTO 33018KT 10SM CLR 14/07 A3003 RMK AO2 SLP122
T01390072





000
SAUS46 KLOX 271048
MTRCQT
METAR KCQT 271047Z AUTO 00000KT 7SM OVC016 16/12 A2998 RMK AO2
SLP152 T01560122





000
SAUS46 KLOX 270957
MTR9L2
METAR K9L2 270955Z AUTO 21009KT 10SM CLR 16/05 A2991 RMK AO2 SLP114
T01610050 TSNO $





000
SAUS46 KLOX 270949
MTRSDB
METAR KSDB 270948Z AUTO 32011KT 10SM CLR 13/07 A3004 RMK AO2 SLP126
T01330072





000
SAUS46 KLOX 270948
MTRCQT
METAR KCQT 270947Z AUTO VRB03KT 7SM OVC015 16/12 A2999 RMK AO2
SLP152 T01560122





000
SAUS46 KLOX 270857
MTR9L2
METAR K9L2 270855Z AUTO 20010KT 10SM CLR 17/05 A2991 RMK AO2 SLP114
T01670050 58001 TSNO $





000
SAUS46 KLOX 270849
MTRSDB
METAR KSDB 270848Z AUTO 33009KT 10SM CLR 15/07 A3004 RMK AO2 SLP125
T01500072 58006





000
SAUS46 KLOX 270848
MTRCQT
METAR KCQT 270847Z AUTO 00000KT 10SM OVC015 16/12 A2999 RMK AO2
SLP154 T01560117 58003





000
SAUS46 KLOX 270848
MTRCQT
METAR KCQT 270847Z AUTO 00000KT 10SM OVC015 16/12 A2999 RMK AO2
SLP154 T01560117 58003





000
SAUS46 KLOX 270757
MTR9L2
METAR K9L2 270755Z AUTO 21011KT 10SM CLR 18/04 A2992 RMK AO2 SLP116
T01780039 403000117 TSNO $





000
SAUS46 KLOX 270756
MTRCQT
SPECI KCQT 270754Z AUTO 00000KT 10SM OVC015 16/12 A2999 RMK AO2
T01560117





000
SAUS46 KLOX 270749
MTRSDB
METAR KSDB 270748Z AUTO 32012KT 10SM CLR 16/07 A3005 RMK AO2 SLP128
T01560072 402220111





000
SAUS46 KLOX 270749
MTRSDB
METAR KSDB 270748Z AUTO 32012KT 10SM CLR 16/07 A3005 RMK AO2 SLP128
T01560072 402220111





000
SAUS46 KLOX 270749
MTRCQT
METAR KCQT 270747Z AUTO 00000KT 10SM OVC014 16/12 A2999 RMK AO2
SLP155 T01560117 402060150





000
SAUS46 KLOX 270749
MTRCQT
METAR KCQT 270747Z AUTO 00000KT 10SM OVC014 16/12 A2999 RMK AO2
SLP155 T01560117 402060150





000
SAUS46 KLOX 270744
MTRCQT
SPECI KCQT 270743Z AUTO 00000KT 10SM OVC014 16/12 A2999 RMK AO2
T01560117





000
SAUS46 KLOX 270710
MTRCQT
SPECI KCQT 270709Z AUTO 29003KT 10SM OVC015 16/12 A3000 RMK AO2
T01560117





000
SAUS46 KLOX 270710
MTRCQT
SPECI KCQT 270709Z AUTO 29003KT 10SM OVC015 16/12 A3000 RMK AO2
T01560117





000
SAUS46 KLOX 270657
MTR9L2
METAR K9L2 270655Z AUTO 22012KT 10SM CLR 18/06 A2992 RMK AO2 SLP115
T01780061 TSNO $





000
SAUS46 KLOX 270649
MTRSDB
METAR KSDB 270648Z AUTO 31013G18KT 10SM CLR 16/07 A3006 RMK AO2
SLP130 T01560072





000
SAUS46 KLOX 270649
MTRSDB
METAR KSDB 270648Z AUTO 31013G18KT 10SM CLR 16/07 A3006 RMK AO2
SLP130 T01560072





000
SAUS46 KLOX 270648
MTRCQT
METAR KCQT 270647Z AUTO 00000KT 10SM OVC013 16/12 A3000 RMK AO2
SLP156 T01560122





000
SAUS46 KLOX 270557
MTR9L2
METAR K9L2 270555Z AUTO 22013KT 10SM CLR 18/07 A2992 RMK AO2 SLP117
T01830067 10289 20183 50010 TSNO $





000
SAUS46 KLOX 270555
MTRCQT
SPECI KCQT 270554Z AUTO 00000KT 10SM BKN012 15/12 A3000 RMK AO2
T01500122





000
SAUS46 KLOX 270555
MTRCQT
SPECI KCQT 270554Z AUTO 00000KT 10SM BKN012 15/12 A3000 RMK AO2
T01500122





000
SAUS46 KLOX 270549
MTRSDB
METAR KSDB 270548Z AUTO 31010KT 10SM CLR 16/07 A3006 RMK AO2 SLP132
T01560072 10200 20133 50004





000
SAUS46 KLOX 270549
MTRSDB
METAR KSDB 270548Z AUTO 31010KT 10SM CLR 16/07 A3006 RMK AO2 SLP132
T01560072 10200 20133 50004





000
SAUS46 KLOX 270548
MTRCQT
METAR KCQT 270547Z AUTO 00000KT 10SM SCT012 15/12 A3000 RMK AO2
SLP156 T01500117 10189 20150 51008





000
SAUS46 KLOX 270458
MTR9L2
METAR K9L2 270455Z AUTO 23014KT 10SM CLR 19/06 A2993 RMK AO2 SLP121
T01890061 $





000
SAUS46 KLOX 270458
MTR9L2
METAR K9L2 270455Z AUTO 23014KT 10SM CLR 19/06 A2993 RMK AO2 SLP121
T01890061 $





000
SAUS46 KLOX 270449
MTRSDB
METAR KSDB 270448Z AUTO 30010KT 10SM CLR 16/08 A3007 RMK AO2 SLP136
T01560078





000
SAUS46 KLOX 270448
MTRCQT
METAR KCQT 270447Z AUTO 00000KT 10SM FEW012 15/12 A2999 RMK AO2
SLP154 T01500117





000
SAUS46 KLOX 270431
MTRCQT
SPECI KCQT 270430Z AUTO 00000KT 10SM SCT012 15/12 A2999 RMK AO2
T01500122





000
SAUS46 KLOX 270431
MTRCQT
SPECI KCQT 270430Z AUTO 00000KT 10SM SCT012 15/12 A2999 RMK AO2
T01500122





000
SAUS46 KLOX 270359
MTR9L2
METAR K9L2 270355Z AUTO 23015KT 10SM CLR 21/04 A2991 RMK AO2 SLP114
T02060044 $





000
SAUS46 KLOX 270349
MTRSDB
METAR KSDB 270348Z AUTO 23005KT 10SM CLR 13/08 A3006 RMK AO2 SLP136
T01330083





000
SAUS46 KLOX 270349
MTRSDB
METAR KSDB 270348Z AUTO 23005KT 10SM CLR 13/08 A3006 RMK AO2 SLP136
T01330083





000
SAUS46 KLOX 270348
MTRCQT
METAR KCQT 270347Z AUTO 00000KT 10SM BKN013 16/12 A2998 RMK AO2
SLP151 T01560122





000
SAUS46 KLOX 270339
MTRCQT
SPECI KCQT 270337Z AUTO 00000KT 10SM BKN013 16/12 A2998 RMK AO2
T01560122





000
SAUS46 KLOX 270317
MTRCQT
SPECI KCQT 270316Z AUTO 27004KT 10SM SCT013 16/12 A2998 RMK AO2
T01560122





000
SAUS46 KLOX 270317
MTRCQT
SPECI KCQT 270316Z AUTO 27004KT 10SM SCT013 16/12 A2998 RMK AO2
T01560122





000
SAUS46 KLOX 270306
MTRCQT
SPECI KCQT 270305Z AUTO VRB03KT 10SM BKN013 16/12 A2998 RMK AO2
T01610122





000
SAUS46 KLOX 270257
MTR9L2
METAR K9L2 270255Z AUTO 23017KT 10SM CLR 22/05 A2989 RMK AO2 PK WND
24026/0210 SLP108 T02220050 53007 $





000
SAUS46 KLOX 270249
MTRSDB
METAR KSDB 270248Z AUTO 21005KT 10SM CLR 16/04 A3005 RMK AO2 SLP133
T01560044 51003





000
SAUS46 KLOX 270248
MTRCQT
METAR KCQT 270247Z AUTO VRB04KT 10SM FEW014 16/12 A2997 RMK AO2
SLP148 T01610122 53006





000
SAUS46 KLOX 270248
MTRCQT
METAR KCQT 270247Z AUTO VRB04KT 10SM FEW014 16/12 A2997 RMK AO2
SLP148 T01610122 53006





    US Dept of Commerce
    National Oceanic and Atmospheric Administration
    National Weather Service
    1325 East West Highway
    Silver Spring, MD 20910
    Page Author: NWS Internet Services Team
Disclaimer
Information Quality
Credits
Glossary
Privacy Policy
Freedom of Information Act (FOIA)
About Us
Career Opportunities